sensor_id;sensor_type;location;lat;lon;timestamp;pressure;altitude;pressure_sealevel;temperature;humidity
5917;BME280;2984;42.656;23.300;2022-09-01T00:00:25;94281.25;;;17.66;73.22
5917;BME280;2984;42.656;23.300;2022-09-01T00:02:55;94289.09;;;17.84;72.42
5917;BME280;2984;42.656;23.300;2022-09-01T00:05:24;94295.53;;;17.99;72.22
5917;BME280;2984;42.656;23.300;2022-09-01T00:07:53;94308.44;;;18.02;72.14
5917;BME280;2984;42.656;23.300;2022-09-01T00:10:24;94311.25;;;18.26;72.19
5917;BME280;2984;42.656;23.300;2022-09-01T00:12:53;94300.19;;;19.08;69.91
5917;BME280;2984;42.656;23.300;2022-09-01T00:15:22;94303.72;;;19.14;67.51
5917;BME280;2984;42.656;23.300;2022-09-01T00:17:51;94308.72;;;19.22;68.33
5917;BME280;2984;42.656;23.300;2022-09-01T00:20:20;94292.44;;;19.88;65.16
5917;BME280;2984;42.656;23.300;2022-09-01T00:22:49;94289.88;;;19.49;64.89
5917;BME280;2984;42.656;23.300;2022-09-01T00:25:18;94290.88;;;19.01;67.34
5917;BME280;2984;42.656;23.300;2022-09-01T00:27:50;94289.69;;;19.76;69.48
5917;BME280;2984;42.656;23.300;2022-09-01T00:30:23;94298.31;;;20.49;66.41
5917;BME280;2984;42.656;23.300;2022-09-01T00:32:53;94289.75;;;20.45;63.56
5917;BME280;2984;42.656;23.300;2022-09-01T00:35:22;94286.25;;;20.94;64.82
5917;BME280;2984;42.656;23.300;2022-09-01T00:37:50;94304.44;;;21.36;62.86
5917;BME280;2984;42.656;23.300;2022-09-01T00:40:19;94312.69;;;21.62;62.27
5917;BME280;2984;42.656;23.300;2022-09-01T00:42:51;94311.84;;;21.70;61.64
5917;BME280;2984;42.656;23.300;2022-09-01T00:45:20;94310.03;;;20.27;62.22
5917;BME280;2984;42.656;23.300;2022-09-01T00:47:49;94312.78;;;19.62;64.16
5917;BME280;2984;42.656;23.300;2022-09-01T00:50:19;94309.28;;;19.43;67.08
5917;BME280;2984;42.656;23.300;2022-09-01T00:52:51;94312.16;;;19.49;65.68
5917;BME280;2984;42.656;23.300;2022-09-01T00:55:24;94315.63;;;19.66;67.19
5917;BME280;2984;42.656;23.300;2022-09-01T00:57:59;94306.06;;;19.94;66.25
5917;BME280;2984;42.656;23.300;2022-09-01T01:00:31;94315.13;;;20.22;66.61
5917;BME280;2984;42.656;23.300;2022-09-01T01:03:07;94304.19;;;20.39;64.78
5917;BME280;2984;42.656;23.300;2022-09-01T01:05:38;94305.88;;;20.10;63.82
5917;BME280;2984;42.656;23.300;2022-09-01T01:08:11;94302.47;;;19.91;62.56
5917;BME280;2984;42.656;23.300;2022-09-01T01:10:46;94303.47;;;19.57;63.92
5917;BME280;2984;42.656;23.300;2022-09-01T01:13:17;94329.53;;;19.16;66.54
5917;BME280;2984;42.656;23.300;2022-09-01T01:15:48;94317.63;;;18.47;69.29
5917;BME280;2984;42.656;23.300;2022-09-01T01:18:17;94293.41;;;17.85;71.56
5917;BME280;2984;42.656;23.300;2022-09-01T01:20:47;94321.34;;;17.68;72.78
5917;BME280;2984;42.656;23.300;2022-09-01T01:23:37;94322.00;;;17.36;75.48
5917;BME280;2984;42.656;23.300;2022-09-01T01:26:09;94313.34;;;16.98;77.01
5917;BME280;2984;42.656;23.300;2022-09-01T01:28:40;94318.31;;;16.77;77.78
5917;BME280;2984;42.656;23.300;2022-09-01T01:31:11;94326.13;;;16.62;80.17
5917;BME280;2984;42.656;23.300;2022-09-01T01:33:42;94300.03;;;15.95;81.46
5917;BME280;2984;42.656;23.300;2022-09-01T01:36:13;94319.84;;;15.71;83.24
5917;BME280;2984;42.656;23.300;2022-09-01T01:38:45;94323.22;;;15.49;85.87
5917;BME280;2984;42.656;23.300;2022-09-01T01:41:17;94317.69;;;15.72;87.40
5917;BME280;2984;42.656;23.300;2022-09-01T01:43:48;94299.41;;;16.11;84.35
5917;BME280;2984;42.656;23.300;2022-09-01T01:46:17;94322.34;;;16.31;82.61
5917;BME280;2984;42.656;23.300;2022-09-01T01:48:46;94320.97;;;16.39;82.27
5917;BME280;2984;42.656;23.300;2022-09-01T01:51:17;94329.75;;;16.81;81.07
5917;BME280;2984;42.656;23.300;2022-09-01T01:53:46;94333.41;;;17.06;79.45
5917;BME280;2984;42.656;23.300;2022-09-01T01:56:20;94341.31;;;17.20;78.14
5917;BME280;2984;42.656;23.300;2022-09-01T01:58:50;94330.59;;;17.38;77.68
5917;BME280;2984;42.656;23.300;2022-09-01T02:01:21;94332.78;;;17.87;76.80
5917;BME280;2984;42.656;23.300;2022-09-01T02:03:50;94337.09;;;18.02;75.95
5917;BME280;2984;42.656;23.300;2022-09-01T02:06:20;94321.25;;;18.37;72.53
5917;BME280;2984;42.656;23.300;2022-09-01T02:08:50;94346.28;;;18.59;71.70
5917;BME280;2984;42.656;23.300;2022-09-01T02:11:24;94332.59;;;18.84;72.36
5917;BME280;2984;42.656;23.300;2022-09-01T02:13:54;94343.56;;;19.75;69.03
5917;BME280;2984;42.656;23.300;2022-09-01T02:16:24;94346.09;;;20.14;67.73
5917;BME280;2984;42.656;23.300;2022-09-01T02:18:53;94318.63;;;20.31;66.11
5917;BME280;2984;42.656;23.300;2022-09-01T02:21:23;94338.16;;;20.18;64.10
5917;BME280;2984;42.656;23.300;2022-09-01T02:23:54;94343.44;;;20.67;64.62
5917;BME280;2984;42.656;23.300;2022-09-01T02:26:30;94345.22;;;20.99;63.46
5917;BME280;2984;42.656;23.300;2022-09-01T02:29:01;94347.72;;;20.68;62.62
5917;BME280;2984;42.656;23.300;2022-09-01T02:31:32;94344.88;;;20.64;61.90
5917;BME280;2984;42.656;23.300;2022-09-01T02:34:03;94347.94;;;19.64;66.14
5917;BME280;2984;42.656;23.300;2022-09-01T02:36:41;94331.03;;;19.07;67.83
5917;BME280;2984;42.656;23.300;2022-09-01T02:39:12;94324.78;;;18.48;69.76
5917;BME280;2984;42.656;23.300;2022-09-01T02:41:44;94326.25;;;18.33;72.03
5917;BME280;2984;42.656;23.300;2022-09-01T02:44:14;94318.44;;;18.07;72.69
5917;BME280;2984;42.656;23.300;2022-09-01T02:46:45;94317.00;;;17.41;74.08
5917;BME280;2984;42.656;23.300;2022-09-01T02:49:16;94328.31;;;16.76;79.33
5917;BME280;2984;42.656;23.300;2022-09-01T02:51:54;94321.66;;;16.35;80.46
5917;BME280;2984;42.656;23.300;2022-09-01T02:54:26;94315.31;;;16.49;80.49
5917;BME280;2984;42.656;23.300;2022-09-01T02:56:58;94323.28;;;16.66;80.65
5917;BME280;2984;42.656;23.300;2022-09-01T02:59:28;94309.63;;;16.59;80.44
5917;BME280;2984;42.656;23.300;2022-09-01T03:02:00;94327.59;;;16.82;78.84
5917;BME280;2984;42.656;23.300;2022-09-01T03:04:29;94327.03;;;18.13;76.34
5917;BME280;2984;42.656;23.300;2022-09-01T03:06:59;94321.91;;;18.64;73.19
5917;BME280;2984;42.656;23.300;2022-09-01T03:09:28;94325.22;;;19.24;70.72
5917;BME280;2984;42.656;23.300;2022-09-01T03:11:59;94325.22;;;19.22;68.41
5917;BME280;2984;42.656;23.300;2022-09-01T03:14:28;94323.81;;;19.16;69.95
5917;BME280;2984;42.656;23.300;2022-09-01T03:16:57;94319.41;;;19.30;68.81
5917;BME280;2984;42.656;23.300;2022-09-01T03:19:26;94309.72;;;19.84;67.69
5917;BME280;2984;42.656;23.300;2022-09-01T03:22:09;94292.19;;;20.14;65.75
5917;BME280;2984;42.656;23.300;2022-09-01T03:24:37;94319.47;;;20.19;64.25
5917;BME280;2984;42.656;23.300;2022-09-01T03:27:09;94322.59;;;19.89;66.30
5917;BME280;2984;42.656;23.300;2022-09-01T03:29:38;94303.56;;;20.27;65.50
5917;BME280;2984;42.656;23.300;2022-09-01T03:32:06;94329.16;;;20.57;64.61
5917;BME280;2984;42.656;23.300;2022-09-01T03:34:35;94318.25;;;20.66;63.94
5917;BME280;2984;42.656;23.300;2022-09-01T03:37:04;94328.13;;;20.83;63.10
5917;BME280;2984;42.656;23.300;2022-09-01T03:39:34;94315.16;;;20.86;62.92
5917;BME280;2984;42.656;23.300;2022-09-01T03:42:03;94308.41;;;19.69;62.04
5917;BME280;2984;42.656;23.300;2022-09-01T03:44:36;94339.72;;;18.89;67.22
5917;BME280;2984;42.656;23.300;2022-09-01T03:47:05;94334.91;;;18.27;69.14
5917;BME280;2984;42.656;23.300;2022-09-01T03:49:40;94329.91;;;17.56;71.99
5917;BME280;2984;42.656;23.300;2022-09-01T03:52:10;94320.53;;;17.07;74.76
5917;BME280;2984;42.656;23.300;2022-09-01T03:54:39;94327.47;;;16.55;78.10
5917;BME280;2984;42.656;23.300;2022-09-01T03:57:08;94321.75;;;16.57;78.03
5917;BME280;2984;42.656;23.300;2022-09-01T03:59:40;94327.66;;;17.00;77.93
5917;BME280;2984;42.656;23.300;2022-09-01T04:02:09;94324.13;;;17.20;74.87
5917;BME280;2984;42.656;23.300;2022-09-01T04:04:39;94336.25;;;16.94;75.59
5917;BME280;2984;42.656;23.300;2022-09-01T04:07:08;94327.03;;;18.17;75.16
5917;BME280;2984;42.656;23.300;2022-09-01T04:09:36;94325.38;;;18.93;70.83
5917;BME280;2984;42.656;23.300;2022-09-01T04:12:07;94312.31;;;19.21;68.72
5917;BME280;2984;42.656;23.300;2022-09-01T04:14:42;94345.41;;;19.03;68.47
5917;BME280;2984;42.656;23.300;2022-09-01T04:17:13;94332.03;;;19.79;67.00
5917;BME280;2984;42.656;23.300;2022-09-01T04:19:54;94318.06;;;20.14;65.42
5917;BME280;2984;42.656;23.300;2022-09-01T04:22:22;94322.28;;;20.23;63.71
5917;BME280;2984;42.656;23.300;2022-09-01T04:24:54;94332.22;;;19.47;65.16
5917;BME280;2984;42.656;23.300;2022-09-01T04:27:24;94325.16;;;19.30;67.28
5917;BME280;2984;42.656;23.300;2022-09-01T04:29:56;94305.44;;;19.81;65.86
5917;BME280;2984;42.656;23.300;2022-09-01T04:32:26;94332.16;;;20.47;64.47
5917;BME280;2984;42.656;23.300;2022-09-01T04:34:57;94315.50;;;20.57;63.25
5917;BME280;2984;42.656;23.300;2022-09-01T04:37:26;94322.50;;;20.75;62.84
5917;BME280;2984;42.656;23.300;2022-09-01T04:39:57;94296.09;;;20.56;62.37
5917;BME280;2984;42.656;23.300;2022-09-01T04:42:27;94336.00;;;20.88;62.34
5917;BME280;2984;42.656;23.300;2022-09-01T04:45:00;94339.47;;;20.99;61.92
5917;BME280;2984;42.656;23.300;2022-09-01T04:47:31;94328.63;;;21.02;61.70
5917;BME280;2984;42.656;23.300;2022-09-01T04:50:00;94334.22;;;20.54;62.53
5917;BME280;2984;42.656;23.300;2022-09-01T04:52:28;94334.69;;;20.06;65.02
5917;BME280;2984;42.656;23.300;2022-09-01T04:54:57;94316.16;;;19.84;65.52
5917;BME280;2984;42.656;23.300;2022-09-01T04:57:27;94331.03;;;19.05;69.01
5917;BME280;2984;42.656;23.300;2022-09-01T04:59:59;94316.81;;;18.77;71.70
5917;BME280;2984;42.656;23.300;2022-09-01T05:02:28;94334.16;;;18.32;73.79
5917;BME280;2984;42.656;23.300;2022-09-01T05:04:57;94327.75;;;18.18;74.54
5917;BME280;2984;42.656;23.300;2022-09-01T05:07:28;94334.16;;;18.34;73.35
5917;BME280;2984;42.656;23.300;2022-09-01T05:09:58;94329.69;;;18.86;71.67
5917;BME280;2984;42.656;23.300;2022-09-01T05:12:27;94326.81;;;18.90;70.72
5917;BME280;2984;42.656;23.300;2022-09-01T05:14:55;94329.00;;;18.79;73.06
5917;BME280;2984;42.656;23.300;2022-09-01T05:17:33;94286.84;;;18.33;72.82
5917;BME280;2984;42.656;23.300;2022-09-01T05:20:03;94292.53;;;18.47;72.86
5917;BME280;2984;42.656;23.300;2022-09-01T05:22:34;94293.34;;;18.14;74.80
5917;BME280;2984;42.656;23.300;2022-09-01T05:25:06;94305.53;;;18.06;75.84
5917;BME280;2984;42.656;23.300;2022-09-01T05:27:40;94331.31;;;18.18;75.54
5917;BME280;2984;42.656;23.300;2022-09-01T05:30:14;94293.38;;;18.11;74.42
5917;BME280;2984;42.656;23.300;2022-09-01T05:32:48;94308.41;;;18.08;75.39
5917;BME280;2984;42.656;23.300;2022-09-01T05:35:18;94305.50;;;18.18;75.06
5917;BME280;2984;42.656;23.300;2022-09-01T05:37:49;94310.88;;;19.17;72.12
5917;BME280;2984;42.656;23.300;2022-09-01T05:40:19;94300.50;;;19.69;69.24
5917;BME280;2984;42.656;23.300;2022-09-01T05:42:47;94324.28;;;20.43;66.56
5917;BME280;2984;42.656;23.300;2022-09-01T16:26:56;94064.44;;;21.84;68.33
5917;BME280;2984;42.656;23.300;2022-09-01T17:02:27;94102.66;;;20.53;78.52
5917;BME280;2984;42.656;23.300;2022-09-01T17:05:19;94145.22;;;20.92;78.34
5917;BME280;2984;42.656;23.300;2022-09-01T17:24:07;94138.13;;;20.87;81.12
5917;BME280;2984;42.656;23.300;2022-09-01T17:27:03;94117.09;;;20.49;81.62
5917;BME280;2984;42.656;23.300;2022-09-01T17:52:43;94122.66;;;20.08;81.77
5917;BME280;2984;42.656;23.300;2022-09-01T18:32:37;94124.25;;;19.95;75.43
5917;BME280;2984;42.656;23.300;2022-09-01T18:35:34;94153.66;;;19.98;75.33
5917;BME280;2984;42.656;23.300;2022-09-01T18:38:25;94161.63;;;19.93;75.34
5917;BME280;2984;42.656;23.300;2022-09-01T18:41:06;94172.41;;;19.93;75.56
5917;BME280;2984;42.656;23.300;2022-09-01T18:43:39;94163.97;;;19.74;75.65
5917;BME280;2984;42.656;23.300;2022-09-01T18:46:19;94169.09;;;19.68;75.48
5917;BME280;2984;42.656;23.300;2022-09-01T18:49:03;94124.88;;;19.30;75.28
5917;BME280;2984;42.656;23.300;2022-09-01T18:51:47;94173.34;;;19.71;73.94
5917;BME280;2984;42.656;23.300;2022-09-01T18:54:26;94149.13;;;19.51;73.45
5917;BME280;2984;42.656;23.300;2022-09-01T18:57:01;94174.91;;;19.60;73.55
5917;BME280;2984;42.656;23.300;2022-09-01T18:59:44;94164.84;;;19.59;73.53
5917;BME280;2984;42.656;23.300;2022-09-01T19:02:42;94177.66;;;19.70;73.61
5917;BME280;2984;42.656;23.300;2022-09-01T19:05:23;94194.06;;;20.49;73.05
5917;BME280;2984;42.656;23.300;2022-09-01T19:07:58;94189.94;;;20.87;71.54
5917;BME280;2984;42.656;23.300;2022-09-01T19:10:32;94177.66;;;20.90;69.63
5917;BME280;2984;42.656;23.300;2022-09-01T19:13:08;94163.41;;;20.78;69.85
5917;BME280;2984;42.656;23.300;2022-09-01T19:15:47;94143.13;;;20.90;69.01
5917;BME280;2984;42.656;23.300;2022-09-01T19:18:24;94185.72;;;22.13;66.82
5917;BME280;2984;42.656;23.300;2022-09-01T19:21:02;94164.69;;;22.19;65.34
5917;BME280;2984;42.656;23.300;2022-09-01T19:23:39;94219.91;;;21.94;65.26
5917;BME280;2984;42.656;23.300;2022-09-01T19:26:14;94217.25;;;22.23;66.47
5917;BME280;2984;42.656;23.300;2022-09-01T19:28:48;94217.66;;;22.73;63.99
5917;BME280;2984;42.656;23.300;2022-09-01T19:31:22;94196.00;;;22.76;63.15
5917;BME280;2984;42.656;23.300;2022-09-01T19:33:54;94189.50;;;22.41;62.71
5917;BME280;2984;42.656;23.300;2022-09-01T19:36:30;94233.66;;;22.31;64.44
5917;BME280;2984;42.656;23.300;2022-09-01T19:38:59;94178.41;;;22.53;63.45
5917;BME280;2984;42.656;23.300;2022-09-01T19:41:33;94226.38;;;23.06;61.88
5917;BME280;2984;42.656;23.300;2022-09-01T19:44:07;94220.78;;;23.29;61.84
5917;BME280;2984;42.656;23.300;2022-09-01T19:46:43;94209.66;;;23.11;62.16
5917;BME280;2984;42.656;23.300;2022-09-01T19:49:22;94219.28;;;23.32;61.72
5917;BME280;2984;42.656;23.300;2022-09-01T19:52:02;94213.16;;;23.15;61.74
5917;BME280;2984;42.656;23.300;2022-09-01T19:54:41;94206.63;;;22.84;62.94
5917;BME280;2984;42.656;23.300;2022-09-01T19:57:19;94214.13;;;23.36;61.61
5917;BME280;2984;42.656;23.300;2022-09-01T19:59:56;94201.78;;;22.39;64.24
5917;BME280;2984;42.656;23.300;2022-09-01T20:02:30;94212.38;;;21.27;69.31
5917;BME280;2984;42.656;23.300;2022-09-01T20:05:05;94217.28;;;20.27;74.52
5917;BME280;2984;42.656;23.300;2022-09-01T20:07:44;94214.22;;;19.79;77.52
5917;BME280;2984;42.656;23.300;2022-09-01T20:10:21;94210.41;;;19.17;80.60
5917;BME280;2984;42.656;23.300;2022-09-01T20:13:19;94220.50;;;19.12;83.11
5917;BME280;2984;42.656;23.300;2022-09-01T20:15:54;94216.53;;;19.63;79.56
5917;BME280;2984;42.656;23.300;2022-09-01T20:18:28;94206.25;;;19.84;78.50
5917;BME280;2984;42.656;23.300;2022-09-01T20:21:03;94209.44;;;19.47;79.64
5917;BME280;2984;42.656;23.300;2022-09-01T20:23:42;94193.31;;;19.01;82.26
5917;BME280;2984;42.656;23.300;2022-09-01T20:26:15;94194.81;;;18.94;83.01
5917;BME280;2984;42.656;23.300;2022-09-01T20:28:51;94190.69;;;18.61;85.21
5917;BME280;2984;42.656;23.300;2022-09-01T20:31:26;94175.66;;;18.54;85.55
5917;BME280;2984;42.656;23.300;2022-09-01T20:34:00;94200.63;;;18.80;84.86
5917;BME280;2984;42.656;23.300;2022-09-01T20:36:36;94201.88;;;19.09;84.25
5917;BME280;2984;42.656;23.300;2022-09-01T20:39:15;94212.25;;;19.58;80.80
5917;BME280;2984;42.656;23.300;2022-09-01T20:42:05;94205.47;;;19.92;79.06
5917;BME280;2984;42.656;23.300;2022-09-01T20:44:43;94206.03;;;20.06;77.69
5917;BME280;2984;42.656;23.300;2022-09-01T20:47:16;94205.00;;;20.36;76.23
5917;BME280;2984;42.656;23.300;2022-09-01T20:49:45;94190.31;;;20.58;74.17
5917;BME280;2984;42.656;23.300;2022-09-01T20:52:16;94211.78;;;21.19;71.86
5917;BME280;2984;42.656;23.300;2022-09-01T20:54:55;94182.53;;;21.47;69.58
5917;BME280;2984;42.656;23.300;2022-09-01T20:57:35;94207.88;;;22.23;66.84
5917;BME280;2984;42.656;23.300;2022-09-01T21:00:12;94205.22;;;22.48;65.72
5917;BME280;2984;42.656;23.300;2022-09-01T21:02:51;94209.22;;;22.63;65.14
5917;BME280;2984;42.656;23.300;2022-09-01T21:05:33;94193.09;;;22.76;64.08
5917;BME280;2984;42.656;23.300;2022-09-01T21:08:13;94205.84;;;22.87;63.75
5917;BME280;2984;42.656;23.300;2022-09-01T21:10:55;94208.03;;;22.52;64.46
5917;BME280;2984;42.656;23.300;2022-09-01T21:13:42;94213.88;;;22.48;64.30
5917;BME280;2984;42.656;23.300;2022-09-01T21:16:23;94201.06;;;22.02;65.60
5917;BME280;2984;42.656;23.300;2022-09-01T21:19:00;94210.78;;;21.82;66.74
5917;BME280;2984;42.656;23.300;2022-09-01T21:21:35;94216.78;;;21.68;67.58
5917;BME280;2984;42.656;23.300;2022-09-01T21:24:12;94226.88;;;21.67;67.07
5917;BME280;2984;42.656;23.300;2022-09-01T21:26:56;94225.59;;;21.08;69.25
5917;BME280;2984;42.656;23.300;2022-09-01T21:29:49;94171.56;;;20.64;69.82
5917;BME280;2984;42.656;23.300;2022-09-01T21:32:37;94124.69;;;20.71;69.19
5917;BME280;2984;42.656;23.300;2022-09-01T21:35:14;94222.53;;;21.22;69.34
5917;BME280;2984;42.656;23.300;2022-09-01T21:37:43;94127.03;;;20.58;69.29
5917;BME280;2984;42.656;23.300;2022-09-01T21:40:16;94192.81;;;20.87;69.21
5917;BME280;2984;42.656;23.300;2022-09-01T21:42:50;94224.03;;;21.19;69.41
5917;BME280;2984;42.656;23.300;2022-09-01T21:45:21;94227.03;;;21.09;70.05
5917;BME280;2984;42.656;23.300;2022-09-01T21:47:51;94215.81;;;21.38;68.61
5917;BME280;2984;42.656;23.300;2022-09-01T21:50:22;94235.59;;;21.15;68.95
5917;BME280;2984;42.656;23.300;2022-09-01T21:52:52;94231.09;;;21.28;69.52
5917;BME280;2984;42.656;23.300;2022-09-01T21:55:21;94198.44;;;20.95;68.92
5917;BME280;2984;42.656;23.300;2022-09-01T21:57:53;94229.75;;;20.68;70.69
5917;BME280;2984;42.656;23.300;2022-09-01T22:00:28;94203.59;;;20.31;71.64
5917;BME280;2984;42.656;23.300;2022-09-01T22:02:57;94196.66;;;19.34;75.28
5917;BME280;2984;42.656;23.300;2022-09-01T22:05:28;94229.13;;;19.08;77.41
5917;BME280;2984;42.656;23.300;2022-09-01T22:07:58;94230.06;;;18.76;79.25
5917;BME280;2984;42.656;23.300;2022-09-01T22:10:29;94244.41;;;18.76;80.04
5917;BME280;2984;42.656;23.300;2022-09-01T22:13:01;94233.63;;;18.79;79.22
5917;BME280;2984;42.656;23.300;2022-09-01T22:15:30;94209.31;;;18.68;78.94
5917;BME280;2984;42.656;23.300;2022-09-01T22:17:59;94229.25;;;18.90;79.07
5917;BME280;2984;42.656;23.300;2022-09-01T22:20:28;94229.13;;;19.08;78.47
5917;BME280;2984;42.656;23.300;2022-09-01T22:22:58;94212.63;;;19.09;78.31
5917;BME280;2984;42.656;23.300;2022-09-01T22:25:31;94221.91;;;19.13;78.78
5917;BME280;2984;42.656;23.300;2022-09-01T22:28:04;94193.31;;;19.01;79.05
5917;BME280;2984;42.656;23.300;2022-09-01T22:30:33;94191.09;;;19.12;78.44
5917;BME280;2984;42.656;23.300;2022-09-01T22:33:02;94189.59;;;19.19;78.16
5917;BME280;2984;42.656;23.300;2022-09-01T22:35:32;94198.81;;;19.30;78.28
5917;BME280;2984;42.656;23.300;2022-09-01T22:38:01;94185.25;;;19.22;78.20
5917;BME280;2984;42.656;23.300;2022-09-01T22:40:30;94181.69;;;19.22;77.75
5917;BME280;2984;42.656;23.300;2022-09-01T22:43:02;94203.19;;;19.27;78.51
5917;BME280;2984;42.656;23.300;2022-09-01T22:45:31;94165.16;;;19.22;77.81
5917;BME280;2984;42.656;23.300;2022-09-01T22:48:00;94170.00;;;19.44;77.13
5917;BME280;2984;42.656;23.300;2022-09-01T22:50:29;94183.63;;;19.49;77.17
5917;BME280;2984;42.656;23.300;2022-09-01T22:52:57;94181.47;;;19.44;77.48
5917;BME280;2984;42.656;23.300;2022-09-01T22:55:26;94184.34;;;19.50;77.80
5917;BME280;2984;42.656;23.300;2022-09-01T22:57:55;94160.03;;;19.37;77.44
5917;BME280;2984;42.656;23.300;2022-09-01T23:00:26;94169.97;;;19.46;76.90
5917;BME280;2984;42.656;23.300;2022-09-01T23:02:55;94166.38;;;19.45;77.34
5917;BME280;2984;42.656;23.300;2022-09-01T23:05:25;94180.38;;;19.86;76.80
5917;BME280;2984;42.656;23.300;2022-09-01T23:07:55;94155.41;;;19.70;76.09
5917;BME280;2984;42.656;23.300;2022-09-01T23:10:24;94154.19;;;19.43;77.52
5917;BME280;2984;42.656;23.300;2022-09-01T23:12:53;94164.38;;;19.30;79.25
5917;BME280;2984;42.656;23.300;2022-09-01T23:15:22;94165.28;;;19.06;80.59
5917;BME280;2984;42.656;23.300;2022-09-01T23:17:53;94170.25;;;19.13;81.28
5917;BME280;2984;42.656;23.300;2022-09-01T23:20:26;94181.03;;;19.13;81.30
5917;BME280;2984;42.656;23.300;2022-09-01T23:22:55;94167.44;;;19.07;81.51
5917;BME280;2984;42.656;23.300;2022-09-01T23:25:24;94168.63;;;19.39;80.26
5917;BME280;2984;42.656;23.300;2022-09-01T23:27:52;94178.47;;;19.64;79.21
5917;BME280;2984;42.656;23.300;2022-09-01T23:30:21;94173.69;;;19.32;80.43
5917;BME280;2984;42.656;23.300;2022-09-01T23:32:53;94181.06;;;19.09;82.25
5917;BME280;2984;42.656;23.300;2022-09-01T23:35:22;94179.00;;;18.99;83.29
5917;BME280;2984;42.656;23.300;2022-09-01T23:37:51;94141.94;;;18.61;83.50
5917;BME280;2984;42.656;23.300;2022-09-01T23:40:20;94159.81;;;18.71;84.15
5917;BME280;2984;42.656;23.300;2022-09-01T23:42:49;94179.84;;;18.73;85.33
5917;BME280;2984;42.656;23.300;2022-09-01T23:45:18;94156.31;;;18.51;86.08
5917;BME280;2984;42.656;23.300;2022-09-01T23:47:47;94170.63;;;18.59;86.50
5917;BME280;2984;42.656;23.300;2022-09-01T23:50:18;94188.50;;;18.69;86.24
5917;BME280;2984;42.656;23.300;2022-09-01T23:52:47;94157.72;;;18.56;86.29
5917;BME280;2984;42.656;23.300;2022-09-01T23:55:16;94189.88;;;18.76;86.54
5917;BME280;2984;42.656;23.300;2022-09-01T23:57:46;94166.19;;;18.80;85.53
